Time;durP1;ratioP1;P1;durP2;ratioP2;P2;SDS_P1;SDS_P2;PMS_P1;PMS_P2;Temp;Humidity;BMP_temperature;BMP_pressure;BME280_temperature;BME280_humidity;BME280_pressure;Samples;Min_cycle;Max_cycle;Signal;HPM_P1;HPM_P2
2021/09/19 13:42:22;;;;;;;5.82;3.65;;;18.80;52.40;;;;;;4875094;29;20280;-85
2021/09/19 13:44:49;;;;;;;5.63;3.72;;;18.70;52.60;;;;;;4858318;29;20606;-84
2021/09/19 13:47:19;;;;;;;8.73;4.00;;;18.80;52.00;;;;;;4856618;29;20175;-85
2021/09/19 13:49:48;;;;;;;8.07;4.07;;;18.80;52.50;;;;;;4855418;29;20662;-84
2021/09/19 13:52:37;;;;;;;7.65;3.72;;;18.70;51.80;;;;;;4872458;29;20176;-86
2021/09/19 13:55:06;;;;;;;6.22;3.90;;;18.80;52.30;;;;;;4874128;29;20168;-83
2021/09/19 13:57:32;;;;;;;9.35;3.92;;;18.80;52.10;;;;;;4873694;29;20182;-83
2021/09/19 14:00:23;;;;;;;6.38;4.22;;;18.80;51.70;;;;;;4864003;29;20196;-83
2021/09/19 14:02:50;;;;;;;5.97;3.83;;;18.80;51.80;;;;;;4857151;29;20184;-85
2021/09/19 14:05:42;;;;;;;6.85;3.60;;;18.80;52.10;;;;;;4832258;29;20752;-85
2021/09/19 14:11:29;;;;;;;5.28;3.80;;;18.80;52.20;;;;;;4848826;29;20362;-84
2021/09/19 14:13:55;;;;;;;6.20;3.70;;;18.80;52.10;;;;;;4843425;29;20727;-82
2021/09/19 14:16:21;;;;;;;6.90;3.80;;;18.80;52.30;;;;;;4827450;29;20184;-82
2021/09/19 14:18:46;;;;;;;6.03;3.75;;;18.80;52.00;;;;;;4842723;29;20310;-83
2021/09/19 14:21:12;;;;;;;6.20;4.00;;;18.80;52.10;;;;;;4842274;29;20188;-82
2021/09/19 14:23:38;;;;;;;7.15;3.70;;;18.80;52.20;;;;;;4843045;29;20207;-81
2021/09/19 14:26:04;;;;;;;5.38;3.58;;;18.80;51.80;;;;;;4842664;29;20169;-82
2021/09/19 14:28:29;;;;;;;7.70;3.72;;;18.90;51.30;;;;;;4842535;29;20193;-81
2021/09/19 14:30:55;;;;;;;5.00;3.75;;;18.80;51.90;;;;;;4842273;29;20189;-82
2021/09/19 14:33:21;;;;;;;7.43;3.83;;;18.90;52.10;;;;;;4849599;29;20257;-81
2021/09/19 14:35:46;;;;;;;5.60;3.78;;;18.80;51.90;;;;;;4846238;29;20179;-83
2021/09/19 14:38:13;;;;;;;4.85;3.85;;;18.80;52.30;;;;;;4861732;29;20193;-83
2021/09/19 14:40:39;;;;;;;5.35;3.88;;;18.90;51.80;;;;;;4861296;29;20226;-81
2021/09/19 14:43:04;;;;;;;4.80;3.72;;;18.90;52.10;;;;;;4849526;29;20184;-82
2021/09/19 14:45:30;;;;;;;4.43;3.67;;;18.80;51.80;;;;;;4880256;29;20161;-84
2021/09/19 14:47:56;;;;;;;6.32;3.67;;;18.80;51.40;;;;;;4879846;29;20197;-85
2021/09/19 14:50:21;;;;;;;4.88;3.60;;;18.90;51.50;;;;;;4879950;29;20187;-80
2021/09/19 14:52:47;;;;;;;7.43;3.60;;;18.90;52.50;;;;;;4881003;29;20172;-80
2021/09/19 14:55:13;;;;;;;5.07;3.65;;;18.90;52.00;;;;;;4865102;29;20649;-80
2021/09/19 14:57:39;;;;;;;5.57;3.53;;;18.90;51.80;;;;;;4864618;29;20522;-81
2021/09/19 15:00:05;;;;;;;4.70;3.50;;;18.90;52.10;;;;;;4864722;29;20164;-82
2021/09/19 15:02:31;;;;;;;5.05;3.63;;;18.90;52.10;;;;;;4864159;29;20622;-80
2021/09/19 15:04:59;;;;;;;6.60;4.00;;;18.80;51.90;;;;;;4880215;29;20157;-80
2021/09/19 15:07:39;;;;;;;6.30;3.60;;;18.90;52.00;;;;;;4878980;29;20243;-82
2021/09/19 15:10:07;;;;;;;6.28;3.70;;;18.90;51.20;;;;;;4862685;29;20216;-81
2021/09/19 15:12:33;;;;;;;6.82;3.35;;;18.90;51.70;;;;;;4848309;29;20187;-81
2021/09/19 15:14:58;;;;;;;6.03;3.67;;;18.90;51.10;;;;;;4863348;29;20168;-81
2021/09/19 15:17:24;;;;;;;5.05;3.50;;;18.80;51.20;;;;;;4882929;29;20189;-83
2021/09/19 15:19:51;;;;;;;5.97;3.95;;;18.90;51.10;;;;;;4881558;29;20168;-80
2021/09/19 15:22:22;;;;;;;4.82;3.63;;;18.90;51.30;;;;;;4863721;29;20160;-82
2021/09/19 15:24:55;;;;;;;5.85;3.92;;;18.90;51.10;;;;;;4847883;29;20591;-84
2021/09/19 15:27:23;;;;;;;4.45;3.58;;;19.00;51.40;;;;;;4841080;29;20197;-80
2021/09/19 15:29:49;;;;;;;4.88;3.67;;;18.90;51.60;;;;;;4841265;29;20587;-82
2021/09/19 15:32:14;;;;;;;4.25;3.22;;;19.00;51.40;;;;;;4841502;29;20735;-81
2021/09/19 15:34:40;;;;;;;4.40;3.67;;;18.90;51.10;;;;;;4826189;29;20220;-81
2021/09/19 15:37:06;;;;;;;4.63;3.50;;;19.00;51.00;;;;;;4841459;29;20166;-84
2021/09/19 15:39:33;;;;;;;6.22;3.88;;;18.90;51.20;;;;;;4842110;29;20535;-83
2021/09/19 15:42:04;;;;;;;5.03;3.50;;;18.90;51.50;;;;;;4847359;29;20220;-87
2021/09/19 15:44:30;;;;;;;4.28;3.50;;;19.00;51.70;;;;;;4844429;29;20197;-80
2021/09/19 15:46:56;;;;;;;4.82;3.22;;;18.90;51.30;;;;;;4848918;29;20218;-83
2021/09/19 15:49:21;;;;;;;4.50;3.38;;;18.90;51.70;;;;;;4828908;29;20186;-82
2021/09/19 15:51:56;;;;;;;4.72;3.55;;;18.90;51.70;;;;;;4793841;29;20202;-82
2021/09/19 16:01:32;;;;;;;4.97;3.40;;;18.90;51.80;;;;;;4793903;30;20188;-83
2021/09/19 16:05:04;;;;;;;4.35;3.50;;;19.00;52.00;;;;;;4780575;30;20287;-82
2021/09/19 16:18:13;;;;;;;4.72;3.33;;;18.90;51.70;;;;;;4689640;30;20223;-84
2021/09/19 16:27:22;;;;;;;6.43;3.50;;;19.00;51.50;;;;;;4685688;30;20278;-81
2021/09/19 16:29:48;;;;;;;5.22;3.25;;;19.00;51.70;;;;;;4671311;30;20711;-83
2021/09/19 16:32:41;;;;;;;4.07;3.30;;;19.00;51.50;;;;;;4668295;30;20391;-82
2021/09/19 16:35:17;;;;;;;4.82;3.40;;;19.00;51.70;;;;;;4720858;30;20252;-82
2021/09/19 16:37:51;;;;;;;4.80;3.70;;;18.90;51.70;;;;;;4755650;30;20200;-81
2021/09/19 16:40:20;;;;;;;4.65;3.25;;;19.00;51.20;;;;;;4754670;30;20196;-82
2021/09/19 16:42:49;;;;;;;3.88;3.20;;;18.90;51.40;;;;;;4755073;30;20204;-83
2021/09/19 16:45:20;;;;;;;4.35;3.38;;;18.90;50.80;;;;;;4757131;30;20184;-82
2021/09/19 16:47:53;;;;;;;5.07;3.08;;;19.00;50.90;;;;;;4743318;30;20192;-82
2021/09/19 16:50:19;;;;;;;5.38;3.38;;;18.90;51.20;;;;;;4751246;30;20228;-81
2021/09/19 16:52:45;;;;;;;4.15;3.13;;;18.90;51.00;;;;;;4767603;30;20192;-83
2021/09/19 16:55:14;;;;;;;6.40;3.47;;;19.00;50.80;;;;;;4753661;30;20196;-81
2021/09/19 16:57:59;;;;;;;6.22;3.60;;;19.00;51.30;;;;;;4754349;30;20188;-82
2021/09/19 17:00:24;;;;;;;4.07;3.20;;;18.90;51.40;;;;;;4785680;30;20256;-82
2021/09/19 17:02:55;;;;;;;4.35;3.47;;;18.90;50.50;;;;;;4786731;30;20223;-81
2021/09/19 17:05:21;;;;;;;4.03;3.10;;;19.00;51.00;;;;;;4786653;30;20186;-83
2021/09/19 17:07:53;;;;;;;4.68;3.47;;;19.00;50.70;;;;;;4786614;30;20192;-81
2021/09/19 17:10:21;;;;;;;4.35;3.10;;;18.90;50.70;;;;;;4817428;29;20270;-82
2021/09/19 17:13:31;;;;;;;4.50;3.08;;;18.90;50.60;;;;;;4810507;29;20583;-82
2021/09/19 17:16:43;;;;;;;6.57;3.40;;;19.00;50.60;;;;;;4842353;29;20170;-83
2021/09/19 17:19:15;;;;;;;4.20;3.10;;;18.90;50.50;;;;;;4857424;29;20177;-83
2021/09/19 17:31:46;;;;;;;4.35;3.05;;;19.00;50.50;;;;;;4828019;29;20209;-83
2021/09/19 17:34:23;;;;;;;4.65;3.25;;;18.90;50.20;;;;;;4814320;29;20166;-82
2021/09/19 17:44:34;;;;;;;5.70;3.50;;;19.00;50.20;;;;;;4781417;29;20717;-83
2021/09/19 17:48:03;;;;;;;3.88;3.30;;;19.00;50.30;;;;;;4790246;29;20268;-84
2021/09/19 19:33:18;;;;;;;4.15;3.05;;;18.90;50.00;;;;;;4830080;29;20177;-84
2021/09/19 19:35:56;;;;;;;3.78;3.20;;;18.90;49.70;;;;;;4808003;29;20226;-83
2021/09/19 19:38:28;;;;;;;4.15;2.97;;;18.90;49.80;;;;;;4833513;29;20185;-83
2021/09/19 19:41:02;;;;;;;4.70;3.13;;;18.90;50.00;;;;;;4832908;29;20204;-83
2021/09/19 19:43:33;;;;;;;4.15;3.30;;;18.90;50.00;;;;;;4831203;29;20712;-82
2021/09/19 19:55:43;;;;;;;3.63;2.92;;;18.90;49.80;;;;;;4788567;30;20275;-82
2021/09/19 19:58:58;;;;;;;4.05;3.30;;;18.90;49.70;;;;;;4787589;30;20321;-83
2021/09/19 20:02:01;;;;;;;3.45;2.75;;;18.90;49.90;;;;;;4773189;30;20195;-83
2021/09/19 20:04:44;;;;;;;3.13;2.83;;;19.00;50.00;;;;;;4752883;30;20563;-83
2021/09/19 23:15:02;;;;;;;4.35;3.45;;;18.70;51.90;;;;;;4860807;29;20223;-83
